createdAt,value
2023-04-02T00:00:07.650Z,101191.69
2023-04-02T00:03:01.434Z,101196.91
2023-04-02T00:05:56.003Z,101204.31
2023-04-02T00:08:38.909Z,101199.91
2023-04-02T00:11:30.910Z,101208.13
2023-04-02T00:14:06.330Z,101207.25
2023-04-02T00:16:41.472Z,101220.16
2023-04-02T00:19:18.375Z,101221.84
2023-04-02T00:21:52.972Z,101231.13
2023-04-02T00:24:25.938Z,101222.38
2023-04-02T00:26:59.063Z,101231.31
2023-04-02T00:29:31.752Z,101233.16
2023-04-02T00:32:05.894Z,101232.22
2023-04-02T00:34:39.298Z,101234.69
2023-04-02T00:37:23.638Z,101243.88
2023-04-02T00:40:01.543Z,101250.06
2023-04-02T00:42:36.267Z,101251.81
2023-04-02T00:45:20.334Z,101261.19
2023-04-02T00:47:54.650Z,101263.31
2023-04-02T00:50:31.321Z,101256.69
2023-04-02T00:53:11.697Z,101255.53
2023-04-02T00:55:45.413Z,101263.75
2023-04-02T00:58:23.171Z,101265.59
2023-04-02T01:00:56.698Z,101281.34
2023-04-02T01:03:36.349Z,101282.94
2023-04-02T01:06:12.377Z,101295.75
2023-04-02T01:08:57.975Z,101295.47
2023-04-02T01:12:00.349Z,101307.59
2023-04-02T01:14:44.267Z,101304.22
2023-04-02T01:17:31.859Z,101309.44
2023-04-02T01:20:34.434Z,101308.41
2023-04-02T01:23:16.971Z,101318.72
2023-04-02T01:25:55.109Z,101320.94
2023-04-02T01:28:38.055Z,101323.38
2023-04-02T01:31:12.701Z,101329.94
2023-04-02T01:33:45.645Z,101327.81
2023-04-02T01:36:22.663Z,101334.69
2023-04-02T01:39:04.639Z,101332.41
2023-04-02T01:41:43.826Z,101344.66
2023-04-02T01:44:24.122Z,101348.56
2023-04-02T01:47:00.816Z,101354.13
2023-04-02T01:49:34.037Z,101360.22
2023-04-02T01:52:07.565Z,101366.69
2023-04-02T01:54:41.073Z,101366.41
2023-04-02T01:57:14.612Z,101365.34
2023-04-02T01:59:47.604Z,101373.38
2023-04-02T02:02:22.753Z,101371.19
2023-04-02T02:04:55.753Z,101384.41
2023-04-02T02:07:29.909Z,101377.78
2023-04-02T02:10:03.427Z,101383.53
2023-04-02T02:12:36.444Z,101387.06
2023-04-02T02:15:16.523Z,101395.81
2023-04-02T02:17:51.028Z,101404.72
2023-04-02T02:20:24.249Z,101405.94
2023-04-02T02:22:58.036Z,101408.59
2023-04-02T02:25:34.037Z,101410.34
2023-04-02T02:28:10.921Z,101412.91
2023-04-02T02:30:48.500Z,101416.84
2023-04-02T02:33:26.395Z,101420.13
2023-04-02T02:36:06.766Z,101419.25
2023-04-02T02:38:53.250Z,101432.94
2023-04-02T02:41:41.423Z,101430.50
2023-04-02T02:44:20.710Z,101441.00
2023-04-02T02:46:57.696Z,101441.16
2023-04-02T02:49:34.327Z,101449.16
2023-04-02T02:52:16.702Z,101454.44
2023-04-02T02:54:59.758Z,101465.13
2023-04-02T02:57:40.695Z,101464.44
2023-04-02T03:00:16.961Z,101462.94
2023-04-02T03:02:50.623Z,101469.91
2023-04-02T03:05:29.257Z,101471.72
2023-04-02T03:08:17.923Z,101481.19
2023-04-02T03:10:56.703Z,101484.63
2023-04-02T03:13:35.203Z,101487.81
2023-04-02T03:16:16.190Z,101496.28
2023-04-02T03:18:55.307Z,101497.28
2023-04-02T03:21:37.884Z,101506.88
2023-04-02T03:24:17.642Z,101508.69
2023-04-02T03:26:57.191Z,101518.16
2023-04-02T03:29:33.169Z,101524.22
2023-04-02T03:32:13.440Z,101528.44
2023-04-02T03:34:50.968Z,101535.84
2023-04-02T03:37:30.918Z,101539.38
2023-04-02T03:40:09.873Z,101551.34
2023-04-02T03:42:47.341Z,101556.81
2023-04-02T03:45:23.710Z,101568.69
2023-04-02T03:48:00.613Z,101574.38
2023-04-02T03:50:39.308Z,101570.06
2023-04-02T03:53:13.865Z,101582.59
2023-04-02T03:55:46.829Z,101587.13
2023-04-02T03:58:25.985Z,101591.47
2023-04-02T04:01:05.493Z,101593.75
2023-04-02T04:03:42.348Z,101608.78
2023-04-02T04:06:22.160Z,101614.47
2023-04-02T04:09:00.660Z,101622.41
2023-04-02T04:11:36.692Z,101621.78
2023-04-02T04:14:17.635Z,101620.75
2023-04-02T04:16:56.505Z,101623.63
2023-04-02T04:19:39.103Z,101629.78
2023-04-02T04:22:17.851Z,101636.03
2023-04-02T04:24:54.132Z,101630.56
2023-04-02T04:27:34.717Z,101640.44
2023-04-02T04:30:18.187Z,101643.78
2023-04-02T04:32:58.233Z,101653.19
2023-04-02T04:35:35.573Z,101654.31
2023-04-02T04:38:15.701Z,101653.16
2023-04-02T04:40:54.840Z,101664.88
2023-04-02T04:43:39.983Z,101672.09
2023-04-02T04:46:19.098Z,101667.31
2023-04-02T04:48:58.113Z,101674.38
2023-04-02T04:51:35.436Z,101688.03
2023-04-02T04:54:13.865Z,101693.28
2023-04-02T04:56:52.719Z,101693.72
2023-04-02T04:59:30.819Z,101690.78
2023-04-02T05:02:12.738Z,101694.66
2023-04-02T05:04:50.752Z,101700.13
2023-04-02T05:07:29.466Z,101712.41
2023-04-02T05:10:09.282Z,101718.75
2023-04-02T05:12:52.346Z,101722.53
2023-04-02T05:15:31.233Z,101734.28
2023-04-02T05:18:19.931Z,101751.81
2023-04-02T05:20:57.748Z,101754.06
2023-04-02T05:23:35.999Z,101759.75
2023-04-02T05:26:14.905Z,101757.47
2023-04-02T05:28:55.754Z,101765.22
2023-04-02T05:31:37.791Z,101771.25
2023-04-02T05:34:12.698Z,101770.69
2023-04-02T05:36:48.813Z,101774.56
2023-04-02T05:39:23.992Z,101786.81
2023-04-02T05:42:04.463Z,101781.72
2023-04-02T05:45:09.471Z,101782.69
2023-04-02T05:47:45.310Z,101793.63
2023-04-02T05:50:30.286Z,101798.41
2023-04-02T05:53:09.584Z,101797.47
2023-04-02T05:55:51.317Z,101812.56
2023-04-02T05:58:36.089Z,101814.53
2023-04-02T06:01:42.067Z,101825.47
2023-04-02T06:04:27.499Z,101824.03
2023-04-02T06:07:05.334Z,101834.16
2023-04-02T06:09:44.636Z,101841.06
2023-04-02T06:12:24.974Z,101847.72
2023-04-02T06:14:58.241Z,101856.38
2023-04-02T06:17:47.923Z,101861.84
2023-04-02T06:20:21.894Z,101871.19
2023-04-02T06:22:58.217Z,101867.47
2023-04-02T06:25:35.027Z,101875.72
2023-04-02T06:28:15.346Z,101886.81
2023-04-02T06:31:02.217Z,101889.72
2023-04-02T06:33:42.073Z,101895.50
2023-04-02T06:36:15.609Z,101904.19
2023-04-02T06:38:50.162Z,101911.03
2023-04-02T06:41:25.890Z,101915.75
2023-04-02T06:44:14.042Z,101914.63
2023-04-02T06:47:12.933Z,101926.69
2023-04-02T06:49:51.242Z,101932.53
2023-04-02T06:52:29.596Z,101937.47
2023-04-02T06:55:08.517Z,101934.88
2023-04-02T06:57:43.004Z,101941.19
2023-04-02T07:00:29.463Z,101944.53
2023-04-02T07:03:07.430Z,101950.69
2023-04-02T07:05:43.117Z,101961.28
2023-04-02T07:08:16.627Z,101972.38
2023-04-02T07:10:49.605Z,101977.22
2023-04-02T07:13:31.825Z,101983.63
2023-04-02T07:16:05.499Z,101992.00
2023-04-02T07:18:38.704Z,102000.50
2023-04-02T07:21:14.076Z,101998.25
2023-04-02T07:23:48.897Z,102007.41
2023-04-02T07:26:23.758Z,102002.91
2023-04-02T07:28:57.472Z,102009.19
2023-04-02T07:31:30.621Z,102018.81
2023-04-02T07:34:03.505Z,102030.72
2023-04-02T07:36:37.589Z,102030.72
2023-04-02T07:39:10.494Z,102043.25
2023-04-02T07:41:52.722Z,102043.72
2023-04-02T07:44:25.765Z,102050.19
2023-04-02T07:46:58.662Z,102044.34
2023-04-02T07:49:31.498Z,102059.97
2023-04-02T07:52:05.959Z,102055.97
2023-04-02T07:54:39.944Z,102072.16
2023-04-02T07:57:13.247Z,102078.75
2023-04-02T07:59:46.449Z,102084.41
2023-04-02T08:02:22.687Z,102091.47
2023-04-02T08:04:55.553Z,102086.00
2023-04-02T08:07:29.701Z,102097.06
2023-04-02T08:10:02.520Z,102100.28
2023-04-02T08:12:35.614Z,102106.88
2023-04-02T08:15:09.504Z,102112.50
2023-04-02T08:17:43.178Z,102119.72
2023-04-02T08:20:18.103Z,102108.78
2023-04-02T08:22:52.395Z,102115.06
2023-04-02T08:25:25.619Z,102117.00
2023-04-02T08:28:01.591Z,102118.59
2023-04-02T08:30:34.389Z,102130.00
2023-04-02T08:33:07.188Z,102132.44
2023-04-02T08:35:40.347Z,102125.69
2023-04-02T08:38:16.602Z,102135.94
2023-04-02T08:40:51.948Z,102131.28
2023-04-02T08:43:45.032Z,102144.16
2023-04-02T08:46:25.851Z,102140.28
2023-04-02T08:49:01.963Z,102149.59
2023-04-02T08:51:38.546Z,102160.25
2023-04-02T08:54:18.660Z,102163.44
2023-04-02T08:56:55.966Z,102165.19
2023-04-02T08:59:33.858Z,102175.66
2023-04-02T09:02:30.511Z,102185.63
2023-04-02T09:05:08.110Z,102194.31
2023-04-02T09:07:42.147Z,102198.47
2023-04-02T09:10:17.563Z,102196.88
2023-04-02T09:12:53.766Z,102201.69
2023-04-02T09:15:34.546Z,102199.41
2023-04-02T09:18:15.039Z,102206.00
2023-04-02T09:20:49.287Z,102207.16
2023-04-02T09:23:25.969Z,102207.44
2023-04-02T09:26:04.479Z,102204.88
2023-04-02T09:28:38.529Z,102208.75
2023-04-02T09:31:20.159Z,102210.69
2023-04-02T09:33:54.747Z,102220.63
2023-04-02T09:36:35.097Z,102225.78
2023-04-02T09:39:18.974Z,102227.59
2023-04-02T09:42:04.895Z,102232.28
2023-04-02T09:44:38.390Z,102242.94
2023-04-02T09:47:28.720Z,102241.41
2023-04-02T09:50:14.919Z,102252.38
2023-04-02T09:52:48.082Z,102250.19
2023-04-02T09:55:27.368Z,102259.69
2023-04-02T09:58:14.164Z,102257.31
2023-04-02T10:00:52.067Z,102256.28
2023-04-02T10:03:27.350Z,102260.03
2023-04-02T10:06:09.266Z,102263.19
2023-04-02T10:08:43.734Z,102264.19
2023-04-02T10:11:22.985Z,102267.00
2023-04-02T10:14:02.682Z,102279.75
2023-04-02T10:16:41.609Z,102280.00
2023-04-02T10:19:24.225Z,102291.31
2023-04-02T10:21:59.083Z,102288.06
2023-04-02T10:24:31.914Z,102295.84
2023-04-02T10:27:17.160Z,102308.81
2023-04-02T10:30:03.968Z,102306.44
2023-04-02T10:32:41.964Z,102318.38
2023-04-02T10:35:25.166Z,102319.78
2023-04-02T10:38:17.280Z,102315.28
2023-04-02T10:40:57.089Z,102320.13
2023-04-02T10:43:50.590Z,102323.53
2023-04-02T10:46:29.013Z,102331.06
2023-04-02T10:49:14.834Z,102325.84
2023-04-02T10:51:55.230Z,102331.09
2023-04-02T10:54:39.207Z,102329.94
2023-04-02T10:57:23.352Z,102336.59
2023-04-02T11:00:00.772Z,102333.59
2023-04-02T11:02:40.476Z,102334.56
2023-04-02T11:05:20.281Z,102332.53
2023-04-02T11:08:01.152Z,102336.19
2023-04-02T11:10:39.498Z,102343.75
2023-04-02T11:13:19.671Z,102338.38
2023-04-02T11:15:53.820Z,102349.13
2023-04-02T11:18:34.153Z,102346.00
2023-04-02T11:21:08.118Z,102345.13
2023-04-02T11:23:57.386Z,102340.28
2023-04-02T11:26:38.324Z,102345.78
2023-04-02T11:29:23.781Z,102343.34
2023-04-02T11:32:16.975Z,102350.28
2023-04-02T11:35:24.135Z,102367.72
2023-04-02T11:37:58.510Z,102370.41
2023-04-02T11:40:49.746Z,102375.75
2023-04-02T11:43:51.379Z,102374.28
2023-04-02T11:46:46.231Z,102380.81
2023-04-02T11:49:36.985Z,102381.31
2023-04-02T11:52:28.652Z,102378.88
2023-04-02T11:55:24.475Z,102391.13
2023-04-02T11:58:05.804Z,102391.19
2023-04-02T12:01:14.798Z,102390.13
2023-04-02T12:04:11.601Z,102397.56
2023-04-02T12:07:10.875Z,102411.81
2023-04-02T12:09:47.982Z,102391.78
2023-04-02T12:12:27.668Z,102405.38
2023-04-02T12:15:01.672Z,102396.69
2023-04-02T12:17:37.053Z,102387.25
2023-04-02T12:20:22.152Z,102392.00
2023-04-02T12:22:57.074Z,102401.31
2023-04-02T12:25:33.796Z,102398.38
2023-04-02T12:28:17.776Z,102393.03
2023-04-02T12:30:52.753Z,102403.19
2023-04-02T12:33:30.815Z,102414.31
2023-04-02T12:36:05.679Z,102417.69
2023-04-02T12:38:47.024Z,102422.34
2023-04-02T12:41:24.980Z,102428.31
2023-04-02T12:43:59.353Z,102428.72
2023-04-02T12:46:35.391Z,102441.34
2023-04-02T12:49:23.148Z,102442.94
2023-04-02T12:51:57.226Z,102439.03
2023-04-02T12:54:32.699Z,102448.47
2023-04-02T12:57:40.241Z,102447.78
2023-04-02T13:00:32.303Z,102448.41
2023-04-02T13:03:21.651Z,102456.28
2023-04-02T13:05:56.353Z,102447.09
2023-04-02T13:08:33.078Z,102451.81
2023-04-02T13:11:07.049Z,102451.59
2023-04-02T13:13:44.158Z,102435.19
2023-04-02T13:16:30.394Z,102445.59
2023-04-02T13:19:22.840Z,102438.97
2023-04-02T13:22:16.655Z,102449.56
2023-04-02T13:25:07.287Z,102444.69
2023-04-02T13:27:42.769Z,102444.47
2023-04-02T13:30:30.671Z,102447.97
2023-04-02T13:33:16.737Z,102447.25
2023-04-02T13:35:52.506Z,102450.91
2023-04-02T13:38:29.269Z,102457.47
2023-04-02T13:41:02.251Z,102469.97
2023-04-02T13:43:37.769Z,102468.38
2023-04-02T13:46:20.772Z,102461.53
2023-04-02T13:48:55.619Z,102465.53
2023-04-02T13:51:37.160Z,102479.13
2023-04-02T13:54:15.992Z,102479.25
2023-04-02T13:56:49.359Z,102471.56
2023-04-02T13:59:25.976Z,102473.16
2023-04-02T14:02:07.576Z,102487.47
2023-04-02T14:04:44.655Z,102484.03
2023-04-02T14:07:45.136Z,102497.84
2023-04-02T14:10:26.971Z,102492.78
2023-04-02T14:13:13.369Z,102497.13
2023-04-02T14:16:06.981Z,102495.72
2023-04-02T14:18:59.464Z,102492.66
2023-04-02T14:21:42.390Z,102498.56
2023-04-02T14:24:21.972Z,102501.50
2023-04-02T14:27:07.021Z,102500.72
2023-04-02T14:29:45.773Z,102511.03
2023-04-02T14:32:25.873Z,102507.03
2023-04-02T14:35:06.857Z,102502.31
2023-04-02T14:37:53.104Z,102505.88
2023-04-02T14:40:30.556Z,102508.63
2023-04-02T14:43:08.252Z,102514.97
2023-04-02T14:45:55.431Z,102516.03
2023-04-02T14:48:41.635Z,102519.97
2023-04-02T14:51:23.387Z,102521.13
2023-04-02T14:54:03.723Z,102519.53
2023-04-02T14:56:40.701Z,102523.81
2023-04-02T14:59:26.271Z,102521.50
2023-04-02T15:02:04.225Z,102523.16
2023-04-02T15:04:44.212Z,102526.25
2023-04-02T15:07:23.360Z,102529.81
2023-04-02T15:10:09.980Z,102532.88
2023-04-02T15:12:46.453Z,102519.69
2023-04-02T15:15:37.016Z,102513.59
2023-04-02T15:18:15.252Z,102516.53
2023-04-02T15:20:58.460Z,102525.84
2023-04-02T15:23:39.963Z,102520.78
2023-04-02T15:26:21.738Z,102534.16
2023-04-02T15:29:05.507Z,102527.66
2023-04-02T15:31:41.543Z,102543.03
2023-04-02T15:34:24.257Z,102538.50
2023-04-02T15:37:08.203Z,102541.34
2023-04-02T15:40:02.550Z,102544.44
2023-04-02T15:42:40.749Z,102533.13
2023-04-02T15:45:26.335Z,102538.41
2023-04-02T15:48:24.856Z,102540.91
2023-04-02T15:51:10.036Z,102554.19
2023-04-02T15:53:56.227Z,102553.56
2023-04-02T15:56:46.376Z,102547.44
2023-04-02T15:59:42.521Z,102565.84
2023-04-02T16:02:50.857Z,102559.72
2023-04-02T16:05:36.156Z,102549.66
2023-04-02T16:08:27.061Z,102550.38
2023-04-02T16:11:00.121Z,102561.13
2023-04-02T16:13:36.931Z,102559.72
2023-04-02T16:16:15.199Z,102561.50
2023-04-02T16:18:56.254Z,102576.19
2023-04-02T16:21:34.015Z,102568.84
2023-04-02T16:24:12.735Z,102571.06
2023-04-02T16:26:55.713Z,102574.06
2023-04-02T16:29:53.878Z,102573.84
2023-04-02T16:32:53.731Z,102572.41
2023-04-02T16:35:43.170Z,102583.09
2023-04-02T16:38:30.341Z,102581.75
2023-04-02T16:41:11.890Z,102578.31
2023-04-02T16:43:58.093Z,102583.00
2023-04-02T16:46:42.795Z,102584.41
2023-04-02T16:49:26.079Z,102594.41
2023-04-02T16:52:09.439Z,102604.75
2023-04-02T16:54:52.587Z,102599.19
2023-04-02T16:57:38.173Z,102608.16
2023-04-02T17:00:22.428Z,102609.06
2023-04-02T17:03:10.062Z,102616.88
2023-04-02T17:05:53.960Z,102615.84
2023-04-02T17:08:28.549Z,102627.88
2023-04-02T17:11:11.916Z,102627.44
2023-04-02T17:13:53.788Z,102634.94
2023-04-02T17:16:39.590Z,102637.94
2023-04-02T17:19:16.674Z,102639.09
2023-04-02T17:21:53.911Z,102641.34
2023-04-02T17:24:29.301Z,102645.00
2023-04-02T17:27:07.244Z,102651.22
2023-04-02T17:29:44.208Z,102659.66
2023-04-02T17:32:22.584Z,102658.75
2023-04-02T17:34:57.221Z,102660.44
2023-04-02T17:37:35.919Z,102661.78
2023-04-02T17:40:25.463Z,102660.50
2023-04-02T17:43:06.062Z,102662.31
2023-04-02T17:45:47.030Z,102673.19
2023-04-02T17:48:27.076Z,102674.22
2023-04-02T17:51:11.482Z,102681.50
2023-04-02T17:53:53.659Z,102695.44
2023-04-02T17:56:59.193Z,102695.44
2023-04-02T17:59:44.929Z,102699.75
2023-04-02T18:02:36.174Z,102703.97
2023-04-02T18:05:18.102Z,102702.53
2023-04-02T18:08:04.879Z,102714.50
2023-04-02T18:10:47.206Z,102711.16
2023-04-02T18:13:33.816Z,102719.72
2023-04-02T18:16:38.900Z,102718.63
2023-04-02T18:19:32.650Z,102724.31
2023-04-02T18:22:14.404Z,102732.75
2023-04-02T18:25:06.088Z,102731.47
2023-04-02T18:27:56.529Z,102729.38
2023-04-02T18:30:37.838Z,102734.59
2023-04-02T18:33:36.978Z,102732.03
2023-04-02T18:36:28.049Z,102745.97
2023-04-02T18:39:07.898Z,102749.69
2023-04-02T18:41:55.132Z,102752.25
2023-04-02T18:44:43.210Z,102751.47
2023-04-02T18:47:24.539Z,102759.38
2023-04-02T18:50:12.107Z,102759.91
2023-04-02T18:52:46.673Z,102760.56
2023-04-02T18:55:24.265Z,102762.34
2023-04-02T18:58:04.061Z,102769.78
2023-04-02T19:00:44.263Z,102771.88
2023-04-02T19:03:24.209Z,102780.75
2023-04-02T19:06:03.098Z,102779.31
2023-04-02T19:08:48.323Z,102781.25
2023-04-02T19:11:30.573Z,102791.59
2023-04-02T19:14:12.004Z,102793.22
2023-04-02T19:17:05.781Z,102795.50
2023-04-02T19:19:44.468Z,102807.75
2023-04-02T19:22:39.521Z,102810.66
2023-04-02T19:25:31.597Z,102808.06
2023-04-02T19:28:13.590Z,102813.41
2023-04-02T19:31:04.977Z,102811.78
2023-04-02T19:33:46.279Z,102816.94
2023-04-02T19:36:35.055Z,102819.97
2023-04-02T19:39:32.430Z,102820.13
2023-04-02T19:42:18.526Z,102819.66
2023-04-02T19:44:53.440Z,102820.94
2023-04-02T19:47:28.409Z,102822.66
2023-04-02T19:50:02.140Z,102821.84
2023-04-02T19:52:34.941Z,102832.50
2023-04-02T19:55:08.604Z,102831.50
2023-04-02T19:57:42.703Z,102839.72
2023-04-02T20:00:18.487Z,102837.59
2023-04-02T20:02:56.226Z,102844.84
2023-04-02T20:05:38.290Z,102843.56
2023-04-02T20:08:15.092Z,102854.47
2023-04-02T20:10:50.998Z,102850.81
2023-04-02T20:13:26.082Z,102857.88
2023-04-02T20:16:01.442Z,102855.28
2023-04-02T20:18:37.176Z,102857.50
2023-04-02T20:21:11.294Z,102857.50
2023-04-02T20:23:44.708Z,102864.63
2023-04-02T20:26:18.213Z,102859.63
2023-04-02T20:28:51.613Z,102865.09
2023-04-02T20:31:24.865Z,102877.47
2023-04-02T20:34:00.280Z,102874.53
2023-04-02T20:36:33.426Z,102877.75
2023-04-02T20:39:08.061Z,102878.38
2023-04-02T20:41:41.208Z,102882.22
2023-04-02T20:44:14.244Z,102887.56
2023-04-02T20:46:47.413Z,102885.13
2023-04-02T20:49:21.798Z,102893.78
2023-04-02T20:51:54.625Z,102893.34
2023-04-02T20:54:27.557Z,102902.78
2023-04-02T20:57:00.364Z,102907.03
2023-04-02T20:59:33.110Z,102905.66
2023-04-02T21:02:05.802Z,102916.75
2023-04-02T21:04:39.934Z,102916.38
2023-04-02T21:07:12.861Z,102910.16
2023-04-02T21:09:45.648Z,102915.78
2023-04-02T21:12:18.487Z,102923.94
2023-04-02T21:14:56.778Z,102916.59
2023-04-02T21:17:29.952Z,102932.16
2023-04-02T21:20:04.462Z,102937.16
2023-04-02T21:22:37.303Z,102937.59
2023-04-02T21:25:11.003Z,102938.31
2023-04-02T21:27:44.247Z,102939.63
2023-04-02T21:30:17.381Z,102937.31
2023-04-02T21:32:50.290Z,102943.59
2023-04-02T21:35:24.403Z,102941.09
2023-04-02T21:37:57.238Z,102938.97
2023-04-02T21:40:29.995Z,102945.25
2023-04-02T21:43:02.706Z,102943.56
2023-04-02T21:45:35.768Z,102943.88
2023-04-02T21:48:08.773Z,102939.50
2023-04-02T21:50:42.882Z,102945.16
2023-04-02T21:53:15.599Z,102944.88
2023-04-02T21:55:48.394Z,102955.28
2023-04-02T21:58:21.103Z,102945.38
2023-04-02T22:00:54.154Z,102946.59
2023-04-02T22:03:31.718Z,102943.94
2023-04-02T22:06:08.335Z,102943.38
2023-04-02T22:08:43.174Z,102948.41
2023-04-02T22:11:17.921Z,102945.78
2023-04-02T22:13:51.301Z,102949.31
2023-04-02T22:16:26.658Z,102947.22
2023-04-02T22:19:01.907Z,102948.34
2023-04-02T22:21:37.400Z,102942.56
2023-04-02T22:24:14.060Z,102947.22
2023-04-02T22:26:47.490Z,102939.75
2023-04-02T22:29:20.368Z,102945.00
2023-04-02T22:31:52.950Z,102943.16
2023-04-02T22:34:25.836Z,102949.44
2023-04-02T22:36:59.957Z,102945.41
2023-04-02T22:39:32.819Z,102952.31
2023-04-02T22:42:05.567Z,102950.28
2023-04-02T22:44:38.301Z,102950.47
2023-04-02T22:47:11.121Z,102951.59
2023-04-02T22:49:43.760Z,102954.94
2023-04-02T22:52:17.936Z,102953.91
2023-04-02T22:54:50.674Z,102959.28
2023-04-02T22:57:23.436Z,102961.81
2023-04-02T22:59:56.220Z,102964.22
2023-04-02T23:02:29.005Z,102963.41
2023-04-02T23:05:01.717Z,102961.63
2023-04-02T23:07:36.579Z,102968.06
2023-04-02T23:10:09.973Z,102963.84
2023-04-02T23:12:42.657Z,102968.69
2023-04-02T23:15:15.641Z,102968.28
2023-04-02T23:17:48.389Z,102968.91
2023-04-02T23:20:21.249Z,102971.50
2023-04-02T23:22:55.699Z,102974.25
2023-04-02T23:25:28.520Z,102968.78
2023-04-02T23:28:01.240Z,102968.16
2023-04-02T23:30:34.518Z,102971.91
2023-04-02T23:33:07.588Z,102969.28
2023-04-02T23:35:42.644Z,102968.88
2023-04-02T23:38:16.764Z,102973.22
2023-04-02T23:40:49.561Z,102973.53
2023-04-02T23:43:22.277Z,102967.25
2023-04-02T23:45:55.090Z,102978.44
2023-04-02T23:48:27.770Z,102969.75
2023-04-02T23:51:00.562Z,102970.06
2023-04-02T23:53:35.652Z,102974.72
2023-04-02T23:56:08.838Z,102969.34
2023-04-02T23:58:41.677Z,102979.25
